Terminal Aerodrome Forecast
Issued by NWS Grand Forks, ND

Home | Current Version | Previous Version | Graphics & Text | Print | Product List | Glossary On
Versions: 1 2 3 4 5 6 7 8 9 10 11 12 13 14 15
000
FTUS43 KFGF 172300
TAFFAR
TAF
KFAR 172320Z 1800/1824 32015KT P6SM BKN035
     FM181200 26008KT P6SM SCT035 BKN120
     FM181800 20011KT P6SM BKN120=

USA.gov is the U.S. government's official web portal to all federal, state and local government web resources and services.